aviador You're here:

KELM Decoded Metar

ELMIRA in NY, USA
Report Time2018-02-19 02:53:00
UTC Time2018-02-19 03:55:55
Flight Rules vfr VFR
WindCalm
Visibility9999 m
Phenomena:N/A
Clouds:N/A
Expected CloudBase > 800 ft AGL from Temp-Dew spread
CeilingNone
Temp-3°C (ISA -16)
Dew Point-5°C (86% RH)
AAT-5.6°C
QNH1029 hPa
Density Alt-1,460 ft
Elevation991 ft
Report Wrong Elevation
Raw Report
METAR KELM 190253Z 00000KT 10SM CLR M03/M05 A3039 RMK AO2 SLP302 T10331050
53002=

Extra information for KELM:More info

Metar Taf Metar & Taf Last 4 Metars F.Rules Stats Wind Profile Meteogram Temp Stats Airport Information Weather charts Add Link Nearby VenuesMetar ALERT Operation Metar Decoded Social comments

AIRNAV info for KELM